createdAt,value
2022-12-11T00:00:12.936Z,0.00
2022-12-11T00:01:13.087Z,0.00
2022-12-11T00:02:13.022Z,0.00
2022-12-11T00:03:16.087Z,0.00
2022-12-11T00:04:13.325Z,0.00
2022-12-11T00:05:13.242Z,0.00
2022-12-11T00:06:13.220Z,0.00
2022-12-11T00:07:13.401Z,0.00
2022-12-11T00:08:13.670Z,0.00
2022-12-11T00:09:13.705Z,0.00
2022-12-11T00:10:14.012Z,0.00
2022-12-11T00:11:12.937Z,0.00
2022-12-11T00:12:13.091Z,0.00
2022-12-11T00:13:13.171Z,0.00
2022-12-11T00:14:13.285Z,0.00
2022-12-11T00:15:13.849Z,0.00
2022-12-11T00:16:13.467Z,0.00
2022-12-11T00:17:13.427Z,0.00
2022-12-11T00:18:13.390Z,0.00
2022-12-11T00:19:13.271Z,0.00
2022-12-11T00:20:13.176Z,0.00
2022-12-11T00:21:13.111Z,0.00
2022-12-11T00:22:12.968Z,0.00
2022-12-11T00:23:12.958Z,0.00
2022-12-11T00:24:13.009Z,0.00
2022-12-11T00:25:13.260Z,0.00
2022-12-11T00:26:13.826Z,0.00
2022-12-11T00:27:13.837Z,0.00
2022-12-11T00:28:13.801Z,0.00
2022-12-11T00:29:13.696Z,0.00
2022-12-11T00:30:13.655Z,0.00
2022-12-11T00:31:13.551Z,0.00
2022-12-11T00:32:13.608Z,0.00
2022-12-11T00:33:13.630Z,0.00
2022-12-11T00:34:13.575Z,0.00
2022-12-11T00:35:13.880Z,0.00
2022-12-11T00:36:13.356Z,0.00
2022-12-11T00:37:13.802Z,0.00
2022-12-11T00:38:14.049Z,0.00
2022-12-11T00:39:13.026Z,0.00
2022-12-11T00:40:13.100Z,0.00
2022-12-11T00:41:13.015Z,0.00
2022-12-11T00:42:13.146Z,0.00
2022-12-11T00:43:13.255Z,0.00
2022-12-11T00:44:13.532Z,0.00
2022-12-11T00:45:13.745Z,0.00
2022-12-11T00:46:13.662Z,0.00
2022-12-11T00:47:13.651Z,0.00
2022-12-11T00:48:13.663Z,0.00
2022-12-11T00:49:13.634Z,0.00
2022-12-11T00:50:13.830Z,0.00
2022-12-11T00:51:14.026Z,0.00
2022-12-11T00:52:13.121Z,0.00
2022-12-11T00:53:13.100Z,0.00
2022-12-11T00:54:13.360Z,0.00
2022-12-11T00:55:13.725Z,0.00
2022-12-11T00:56:13.841Z,0.00
2022-12-11T00:57:14.653Z,0.00
2022-12-11T00:58:13.693Z,0.00
2022-12-11T00:59:13.854Z,0.00
2022-12-11T01:00:13.853Z,0.00
2022-12-11T01:01:14.062Z,0.00
2022-12-11T01:02:13.085Z,0.00
2022-12-11T01:03:13.098Z,0.00
2022-12-11T01:04:13.296Z,0.00
2022-12-11T01:05:13.279Z,0.00
2022-12-11T01:06:13.236Z,0.00
2022-12-11T01:07:13.380Z,0.00
2022-12-11T01:08:13.518Z,0.00
2022-12-11T01:09:13.575Z,0.00
2022-12-11T01:10:13.881Z,0.00
2022-12-11T01:11:13.088Z,0.00
2022-12-11T01:12:13.025Z,0.00
2022-12-11T01:13:13.160Z,0.00
2022-12-11T01:14:13.057Z,0.00
2022-12-11T01:15:13.324Z,0.00
2022-12-11T01:16:14.034Z,0.00
2022-12-11T01:17:13.046Z,0.00
2022-12-11T01:18:13.296Z,0.00
2022-12-11T01:19:13.188Z,0.00
2022-12-11T01:20:13.093Z,0.00
2022-12-11T01:21:13.249Z,0.00
2022-12-11T01:22:13.259Z,0.00
2022-12-11T01:23:13.641Z,0.00
2022-12-11T01:24:13.597Z,0.00
2022-12-11T01:25:13.504Z,0.00
2022-12-11T01:26:13.403Z,0.00
2022-12-11T01:27:13.412Z,0.00
2022-12-11T01:28:13.433Z,0.00
2022-12-11T01:29:13.578Z,0.00
2022-12-11T01:30:13.384Z,0.00
2022-12-11T01:31:13.508Z,0.00
2022-12-11T01:32:13.607Z,0.00
2022-12-11T01:33:13.856Z,0.00
2022-12-11T01:34:14.245Z,0.00
2022-12-11T01:35:13.662Z,0.00
2022-12-11T01:36:13.662Z,0.00
2022-12-11T01:37:13.781Z,0.00
2022-12-11T01:38:14.722Z,0.00
2022-12-11T01:39:13.962Z,0.00
2022-12-11T01:40:12.895Z,0.00
2022-12-11T01:41:13.417Z,0.00
2022-12-11T01:42:13.887Z,0.00
2022-12-11T01:43:14.091Z,0.00
2022-12-11T01:44:13.006Z,0.00
2022-12-11T01:45:13.178Z,0.00
2022-12-11T01:46:13.219Z,0.00
2022-12-11T01:47:13.328Z,0.00
2022-12-11T01:48:13.572Z,0.00
2022-12-11T01:49:13.476Z,0.00
2022-12-11T01:50:13.380Z,0.00
2022-12-11T01:51:13.366Z,0.00
2022-12-11T01:52:13.177Z,0.00
2022-12-11T01:53:13.427Z,0.00
2022-12-11T01:54:13.481Z,0.00
2022-12-11T01:55:13.558Z,0.00
2022-12-11T01:56:13.876Z,0.00
2022-12-11T01:57:13.893Z,0.00
2022-12-11T01:58:12.807Z,0.00
2022-12-11T01:59:13.760Z,0.00
2022-12-11T02:00:13.678Z,0.00
2022-12-11T02:01:13.987Z,0.00
2022-12-11T02:02:13.382Z,0.00
2022-12-11T02:03:13.317Z,0.00
2022-12-11T02:04:13.383Z,0.00
2022-12-11T02:05:13.509Z,0.00
2022-12-11T02:06:13.754Z,0.00
2022-12-11T02:07:13.826Z,0.00
2022-12-11T02:08:14.013Z,0.00
2022-12-11T02:09:12.957Z,0.00
2022-12-11T02:10:13.183Z,0.00
2022-12-11T02:11:13.090Z,0.00
2022-12-11T02:12:13.247Z,0.00
2022-12-11T02:13:13.239Z,0.00
2022-12-11T02:14:13.278Z,0.00
2022-12-11T02:15:13.462Z,0.00
2022-12-11T02:16:13.689Z,0.00
2022-12-11T02:17:13.666Z,0.00
2022-12-11T02:18:13.563Z,0.00
2022-12-11T02:19:13.569Z,0.00
2022-12-11T02:20:13.491Z,0.00
2022-12-11T02:21:13.387Z,0.00
2022-12-11T02:22:13.310Z,0.00
2022-12-11T02:23:13.210Z,0.00
2022-12-11T02:24:13.191Z,0.00
2022-12-11T02:25:13.433Z,0.00
2022-12-11T02:26:13.576Z,0.00
2022-12-11T02:27:13.394Z,0.00
2022-12-11T02:28:13.246Z,0.00
2022-12-11T02:29:13.118Z,0.00
2022-12-11T02:30:13.016Z,0.00
2022-12-11T02:31:13.030Z,0.00
2022-12-11T02:32:13.422Z,0.00
2022-12-11T02:33:13.619Z,0.00
2022-12-11T02:34:13.817Z,0.00
2022-12-11T02:35:13.783Z,0.00
2022-12-11T02:36:14.143Z,0.00
2022-12-11T02:37:13.189Z,0.00
2022-12-11T02:38:13.050Z,0.00
2022-12-11T02:39:12.960Z,0.00
2022-12-11T02:40:13.166Z,0.00
2022-12-11T02:41:13.445Z,0.00
2022-12-11T02:42:13.325Z,0.00
2022-12-11T02:43:13.379Z,0.00
2022-12-11T02:44:13.313Z,0.00
2022-12-11T02:45:13.459Z,0.00
2022-12-11T02:46:13.585Z,0.00
2022-12-11T02:47:13.599Z,0.00
2022-12-11T02:48:13.636Z,0.00
2022-12-11T02:49:13.818Z,0.00
2022-12-11T02:50:13.793Z,0.00
2022-12-11T02:51:13.701Z,0.00
2022-12-11T02:52:13.767Z,0.00
2022-12-11T02:53:13.921Z,0.00
2022-12-11T02:54:12.851Z,0.00
2022-12-11T02:55:13.817Z,0.00
2022-12-11T02:56:13.848Z,0.00
2022-12-11T02:57:13.986Z,0.00
2022-12-11T02:58:12.913Z,0.00
2022-12-11T02:59:13.189Z,0.00
2022-12-11T03:00:13.058Z,0.00
2022-12-11T03:01:13.153Z,0.00
2022-12-11T03:02:13.122Z,0.00
2022-12-11T03:03:13.028Z,0.00
2022-12-11T03:04:13.067Z,0.00
2022-12-11T03:05:13.177Z,0.00
2022-12-11T03:06:13.201Z,0.00
2022-12-11T03:07:13.157Z,0.00
2022-12-11T03:08:13.083Z,0.00
2022-12-11T03:09:13.047Z,0.00
2022-12-11T03:10:12.943Z,0.00
2022-12-11T03:11:13.200Z,0.00
2022-12-11T03:12:13.048Z,0.00
2022-12-11T03:13:13.034Z,0.00
2022-12-11T03:14:13.080Z,0.00
2022-12-11T03:15:13.267Z,0.00
2022-12-11T03:16:13.355Z,0.00
2022-12-11T03:17:13.821Z,0.00
2022-12-11T03:18:13.711Z,0.00
2022-12-11T03:19:13.591Z,0.00
2022-12-11T03:20:13.894Z,0.00
2022-12-11T03:21:12.806Z,0.00
2022-12-11T03:22:13.745Z,0.00
2022-12-11T03:23:14.863Z,0.00
2022-12-11T03:24:13.907Z,0.00
2022-12-11T03:25:13.399Z,0.00
2022-12-11T03:26:13.488Z,0.00
2022-12-11T03:27:13.371Z,0.00
2022-12-11T03:28:13.249Z,0.00
2022-12-11T03:29:13.541Z,0.00
2022-12-11T03:30:13.592Z,0.00
2022-12-11T03:31:13.488Z,0.00
2022-12-11T03:32:13.751Z,0.00
2022-12-11T03:33:13.916Z,0.00
2022-12-11T03:34:12.833Z,0.00
2022-12-11T03:35:14.403Z,0.00
2022-12-11T03:36:13.690Z,0.00
2022-12-11T03:37:14.318Z,0.00
2022-12-11T03:38:13.304Z,0.00
2022-12-11T03:39:13.193Z,0.00
2022-12-11T03:40:13.114Z,0.00
2022-12-11T03:41:13.084Z,0.00
2022-12-11T03:42:13.018Z,0.00
2022-12-11T03:43:12.916Z,0.00
2022-12-11T03:44:12.758Z,0.00
2022-12-11T03:45:13.887Z,0.00
2022-12-11T03:46:13.093Z,0.00
2022-12-11T03:47:13.043Z,0.00
2022-12-11T03:48:13.007Z,0.00
2022-12-11T03:49:13.057Z,0.00
2022-12-11T03:50:13.208Z,0.00
2022-12-11T03:51:13.075Z,0.00
2022-12-11T03:52:13.155Z,0.00
2022-12-11T03:53:13.278Z,0.00
2022-12-11T03:54:13.193Z,0.00
2022-12-11T03:55:13.331Z,0.00
2022-12-11T03:56:13.383Z,0.00
2022-12-11T03:57:13.319Z,0.00
2022-12-11T03:58:13.158Z,0.00
2022-12-11T03:59:13.075Z,0.00
2022-12-11T04:00:12.992Z,0.00
2022-12-11T04:01:13.191Z,0.00
2022-12-11T04:02:13.126Z,0.00
2022-12-11T04:03:14.101Z,0.00
2022-12-11T04:04:13.576Z,0.00
2022-12-11T04:05:13.907Z,0.00
2022-12-11T04:06:13.275Z,0.00
2022-12-11T04:07:13.231Z,0.00
2022-12-11T04:08:13.486Z,0.00
2022-12-11T04:09:13.420Z,0.00
2022-12-11T04:10:13.443Z,0.00
2022-12-11T04:11:13.519Z,0.00
2022-12-11T04:12:13.509Z,0.00
2022-12-11T04:13:13.452Z,0.00
2022-12-11T04:14:13.391Z,0.00
2022-12-11T04:15:13.480Z,0.00
2022-12-11T04:16:13.581Z,0.00
2022-12-11T04:17:13.546Z,0.00
2022-12-11T04:18:13.464Z,0.00
2022-12-11T04:19:13.370Z,0.00
2022-12-11T04:20:13.473Z,0.00
2022-12-11T04:21:13.487Z,0.00
2022-12-11T04:22:13.437Z,0.00
2022-12-11T04:23:13.378Z,0.00
2022-12-11T04:24:13.428Z,0.00
2022-12-11T04:25:13.798Z,0.00
2022-12-11T04:26:13.021Z,0.00
2022-12-11T04:27:13.178Z,0.00
2022-12-11T04:28:13.080Z,0.00
2022-12-11T04:29:12.982Z,0.00
2022-12-11T04:30:13.052Z,0.00
2022-12-11T04:31:13.281Z,0.00
2022-12-11T04:32:13.281Z,0.00
2022-12-11T04:33:13.271Z,0.00
2022-12-11T04:34:13.191Z,0.00
2022-12-11T04:35:13.498Z,0.00
2022-12-11T04:36:13.596Z,0.00
2022-12-11T04:37:13.815Z,0.00
2022-12-11T04:38:13.720Z,0.00
2022-12-11T04:39:13.679Z,0.00
2022-12-11T04:40:13.607Z,0.00
2022-12-11T04:41:13.613Z,0.00
2022-12-11T04:42:13.576Z,0.00
2022-12-11T04:43:13.448Z,0.00
2022-12-11T04:44:13.345Z,0.00
2022-12-11T04:45:13.722Z,0.00
2022-12-11T04:46:14.066Z,0.00
2022-12-11T04:47:12.966Z,0.00
2022-12-11T04:48:12.838Z,0.00
2022-12-11T04:49:13.989Z,0.00
2022-12-11T04:50:13.145Z,0.00
2022-12-11T04:51:13.068Z,0.00
2022-12-11T04:52:13.018Z,0.00
2022-12-11T04:53:13.030Z,0.00
2022-12-11T04:54:12.939Z,0.00
2022-12-11T04:55:13.415Z,0.00
2022-12-11T04:56:13.686Z,0.00
2022-12-11T04:57:13.577Z,0.00
2022-12-11T04:58:13.743Z,0.00
2022-12-11T04:59:13.606Z,0.00
2022-12-11T05:00:13.707Z,0.00
2022-12-11T05:01:13.892Z,0.00
2022-12-11T05:02:13.302Z,0.00
2022-12-11T05:03:13.293Z,0.00
2022-12-11T05:04:13.552Z,0.00
2022-12-11T05:05:13.920Z,0.00
2022-12-11T05:06:13.019Z,0.00
2022-12-11T05:07:13.357Z,0.00
2022-12-11T05:08:13.244Z,0.00
2022-12-11T05:09:13.340Z,0.00
2022-12-11T05:10:13.526Z,0.00
2022-12-11T05:11:13.442Z,0.00
2022-12-11T05:12:13.361Z,0.00
2022-12-11T05:13:13.593Z,0.00
2022-12-11T05:14:13.873Z,0.00
2022-12-11T05:15:14.195Z,0.00
2022-12-11T05:16:13.174Z,0.00
2022-12-11T05:17:13.293Z,0.00
2022-12-11T05:18:13.185Z,0.00
2022-12-11T05:19:13.391Z,0.00
2022-12-11T05:20:13.302Z,0.00
2022-12-11T05:21:13.337Z,0.00
2022-12-11T05:22:13.377Z,0.00
2022-12-11T05:23:13.312Z,0.00
2022-12-11T05:24:13.604Z,0.00
2022-12-11T05:25:13.864Z,0.00
2022-12-11T05:26:12.888Z,0.00
2022-12-11T05:27:12.910Z,0.00
2022-12-11T05:28:12.934Z,0.00
2022-12-11T05:29:13.050Z,0.00
2022-12-11T05:30:12.971Z,0.00
2022-12-11T05:31:13.090Z,0.00
2022-12-11T05:32:13.193Z,0.00
2022-12-11T05:33:13.225Z,0.00
2022-12-11T05:34:13.292Z,0.00
2022-12-11T05:35:13.400Z,0.00
2022-12-11T05:36:13.503Z,0.00
2022-12-11T05:37:13.382Z,0.00
2022-12-11T05:38:13.387Z,0.00
2022-12-11T05:39:13.461Z,0.00
2022-12-11T05:40:13.433Z,0.00
2022-12-11T05:41:13.437Z,0.00
2022-12-11T05:42:13.297Z,0.00
2022-12-11T05:43:13.424Z,0.00
2022-12-11T05:44:13.581Z,0.00
2022-12-11T05:45:13.866Z,0.00
2022-12-11T05:46:13.191Z,0.00
2022-12-11T05:47:13.376Z,0.00
2022-12-11T05:48:13.320Z,0.00
2022-12-11T05:49:13.256Z,0.00
2022-12-11T05:50:13.245Z,0.00
2022-12-11T05:51:13.225Z,0.00
2022-12-11T05:52:13.130Z,0.00
2022-12-11T05:53:13.199Z,0.00
2022-12-11T05:54:13.029Z,0.00
2022-12-11T05:55:13.256Z,0.00
2022-12-11T05:56:13.447Z,0.00
2022-12-11T05:57:13.564Z,0.00
2022-12-11T05:58:13.528Z,0.00
2022-12-11T05:59:13.809Z,0.00
2022-12-11T06:00:13.830Z,0.00
2022-12-11T06:01:14.028Z,0.00
2022-12-11T06:02:13.067Z,0.00
2022-12-11T06:03:13.191Z,0.00
2022-12-11T06:04:13.149Z,0.00
2022-12-11T06:05:13.402Z,0.00
2022-12-11T06:06:13.525Z,0.00
2022-12-11T06:07:13.934Z,0.00
2022-12-11T06:08:13.062Z,0.00
2022-12-11T06:09:13.211Z,0.00
2022-12-11T06:10:13.094Z,0.00
2022-12-11T06:11:13.136Z,0.00
2022-12-11T06:12:12.992Z,0.00
2022-12-11T06:13:13.219Z,0.00
2022-12-11T06:14:13.218Z,0.00
2022-12-11T06:15:13.281Z,0.00
2022-12-11T06:16:13.350Z,0.00
2022-12-11T06:17:13.620Z,0.00
2022-12-11T06:18:13.869Z,0.00
2022-12-11T06:19:13.837Z,0.00
2022-12-11T06:20:13.759Z,0.00
2022-12-11T06:21:13.762Z,0.00
2022-12-11T06:22:13.660Z,0.00
2022-12-11T06:23:13.651Z,0.00
2022-12-11T06:24:13.560Z,0.00
2022-12-11T06:25:13.921Z,0.00
2022-12-11T06:26:13.264Z,0.00
2022-12-11T06:27:13.285Z,0.00
2022-12-11T06:28:13.206Z,0.00
2022-12-11T06:29:13.310Z,0.00
2022-12-11T06:30:13.569Z,0.00
2022-12-11T06:31:13.653Z,0.00
2022-12-11T06:32:13.872Z,0.00
2022-12-11T06:33:13.697Z,0.00
2022-12-11T06:34:13.972Z,0.00
2022-12-11T06:35:13.255Z,0.00
2022-12-11T06:36:13.484Z,0.00
2022-12-11T06:37:13.828Z,0.00
2022-12-11T06:38:13.658Z,0.00
2022-12-11T06:39:13.537Z,0.00
2022-12-11T06:40:13.399Z,0.00
2022-12-11T06:41:13.668Z,0.00
2022-12-11T06:42:13.927Z,0.00
2022-12-11T06:43:12.901Z,0.00
2022-12-11T06:44:13.111Z,0.00
2022-12-11T06:45:13.108Z,0.00
2022-12-11T06:46:13.396Z,0.00
2022-12-11T06:47:13.376Z,0.00
2022-12-11T06:48:13.391Z,0.00
2022-12-11T06:49:13.443Z,0.00
2022-12-11T06:50:13.425Z,0.00
2022-12-11T06:51:13.566Z,0.00
2022-12-11T06:52:18.213Z,0.00
2022-12-11T06:53:13.848Z,0.77
2022-12-11T06:54:13.825Z,0.77
2022-12-11T06:55:14.226Z,0.77
2022-12-11T06:56:13.218Z,0.77
2022-12-11T06:57:13.323Z,0.77
2022-12-11T06:58:13.295Z,1.53
2022-12-11T06:59:13.200Z,1.53
2022-12-11T07:00:13.056Z,2.29
2022-12-11T07:01:13.020Z,2.29
2022-12-11T07:02:13.337Z,3.06
2022-12-11T07:03:13.283Z,3.06
2022-12-11T07:04:13.385Z,3.82
2022-12-11T07:05:13.656Z,3.82
2022-12-11T07:06:13.704Z,4.59
2022-12-11T07:07:13.662Z,5.35
2022-12-11T07:08:13.545Z,6.88
2022-12-11T07:09:13.672Z,8.41
2022-12-11T07:10:13.864Z,9.18
2022-12-11T07:11:14.677Z,10.71
2022-12-11T07:12:13.592Z,11.47
2022-12-11T07:13:13.605Z,12.24
2022-12-11T07:14:14.160Z,13.77
2022-12-11T07:15:13.473Z,15.30
2022-12-11T07:16:13.887Z,16.83
2022-12-11T07:17:13.105Z,19.89
2022-12-11T07:18:13.592Z,22.95
2022-12-11T07:19:13.527Z,24.48
2022-12-11T07:20:13.460Z,27.54
2022-12-11T07:21:18.450Z,30.60
2022-12-11T07:22:13.291Z,30.60
2022-12-11T07:23:13.704Z,33.66
2022-12-11T07:24:13.823Z,36.72
2022-12-11T07:25:13.971Z,45.90
2022-12-11T07:26:13.390Z,48.96
2022-12-11T07:27:14.028Z,55.08
2022-12-11T07:28:16.631Z,67.32
2022-12-11T07:29:13.269Z,73.44
2022-12-11T07:30:14.466Z,73.44
2022-12-11T07:31:14.318Z,79.56
2022-12-11T07:32:13.682Z,85.68
2022-12-11T07:33:13.852Z,85.68
2022-12-11T07:34:14.108Z,91.80
2022-12-11T07:35:13.738Z,91.80
2022-12-11T07:36:13.034Z,97.92
2022-12-11T07:37:12.899Z,97.92
2022-12-11T07:38:13.015Z,97.92
2022-12-11T07:39:12.849Z,110.16
2022-12-11T07:40:12.999Z,110.16
2022-12-11T07:41:13.000Z,122.40
2022-12-11T07:42:12.923Z,134.64
2022-12-11T07:43:12.851Z,134.64
2022-12-11T07:44:13.898Z,146.88
2022-12-11T07:45:13.187Z,146.88
2022-12-11T07:46:13.435Z,159.12
2022-12-11T07:47:13.456Z,171.36
2022-12-11T07:48:13.609Z,171.36
2022-12-11T07:49:13.552Z,171.36
2022-12-11T07:50:13.534Z,183.60
2022-12-11T07:51:13.566Z,183.60
2022-12-11T07:52:13.907Z,183.60
2022-12-11T07:53:13.148Z,195.84
2022-12-11T07:54:13.243Z,195.84
2022-12-11T07:55:13.379Z,220.32
2022-12-11T07:56:13.625Z,220.32
2022-12-11T07:57:14.445Z,220.32
2022-12-11T07:58:13.485Z,220.32
2022-12-11T07:59:13.312Z,220.32
2022-12-11T08:00:13.273Z,220.32
2022-12-11T08:01:13.218Z,244.80
2022-12-11T08:02:13.341Z,244.80
2022-12-11T08:03:13.273Z,269.28
2022-12-11T08:04:13.311Z,269.28
2022-12-11T08:05:13.704Z,293.76
2022-12-11T08:06:12.841Z,293.76
2022-12-11T08:07:13.701Z,318.24
2022-12-11T08:08:14.163Z,367.20
2022-12-11T08:09:19.141Z,367.20
2022-12-11T08:10:13.943Z,391.68
2022-12-11T08:11:12.809Z,391.68
2022-12-11T08:12:13.880Z,391.68
2022-12-11T08:13:13.812Z,391.68
2022-12-11T08:14:13.944Z,391.68
2022-12-11T08:15:13.270Z,391.68
2022-12-11T08:16:13.559Z,391.68
2022-12-11T08:17:13.628Z,391.68
2022-12-11T08:18:13.987Z,391.68
2022-12-11T08:19:13.013Z,391.68
2022-12-11T08:20:13.062Z,440.64
2022-12-11T08:21:13.706Z,440.64
2022-12-11T08:22:13.949Z,489.60
2022-12-11T08:23:13.229Z,440.64
2022-12-11T08:24:13.478Z,440.64
2022-12-11T08:25:13.597Z,440.64
2022-12-11T08:26:13.886Z,440.64
2022-12-11T08:27:12.962Z,391.68
2022-12-11T08:28:13.253Z,391.68
2022-12-11T08:29:13.185Z,391.68
2022-12-11T08:30:13.339Z,367.20
2022-12-11T08:31:13.377Z,342.72
2022-12-11T08:32:13.420Z,342.72
2022-12-11T08:33:13.631Z,318.24
2022-12-11T08:34:13.647Z,318.24
2022-12-11T08:35:14.009Z,318.24
2022-12-11T08:36:12.961Z,318.24
2022-12-11T08:37:12.884Z,318.24
2022-12-11T08:38:12.805Z,342.72
2022-12-11T08:39:13.843Z,367.20
2022-12-11T08:40:13.784Z,391.68
2022-12-11T08:41:14.029Z,440.64
2022-12-11T08:42:13.103Z,489.60
2022-12-11T08:43:13.084Z,538.56
2022-12-11T08:44:16.685Z,587.52
2022-12-11T08:45:13.333Z,587.52
2022-12-11T08:46:13.880Z,587.52
2022-12-11T08:47:12.872Z,538.56
2022-12-11T08:48:14.484Z,538.56
2022-12-11T08:49:13.602Z,538.56
2022-12-11T08:50:13.773Z,538.56
2022-12-11T08:51:13.663Z,587.52
2022-12-11T08:52:13.645Z,636.48
2022-12-11T08:53:13.652Z,685.44
2022-12-11T08:54:13.578Z,734.40
2022-12-11T08:55:13.869Z,734.40
2022-12-11T08:56:13.031Z,783.36
2022-12-11T08:57:13.022Z,783.36
2022-12-11T08:58:12.892Z,881.28
2022-12-11T08:59:12.759Z,881.28
2022-12-11T09:00:13.705Z,881.28
2022-12-11T09:01:14.027Z,881.28
2022-12-11T09:02:13.565Z,881.28
2022-12-11T09:03:13.841Z,881.28
2022-12-11T09:04:13.416Z,881.28
2022-12-11T09:05:13.780Z,881.28
2022-12-11T09:06:12.905Z,881.28
2022-12-11T09:07:13.018Z,881.28
2022-12-11T09:08:13.043Z,979.20
2022-12-11T09:09:13.125Z,979.20
2022-12-11T09:10:13.018Z,1175.04
2022-12-11T09:11:13.206Z,1175.04
2022-12-11T09:12:13.276Z,1370.88
2022-12-11T09:13:13.595Z,1370.88
2022-12-11T09:14:13.922Z,1468.80
2022-12-11T09:15:13.326Z,1468.80
2022-12-11T09:16:13.694Z,1468.80
2022-12-11T09:17:13.661Z,1566.72
2022-12-11T09:18:14.451Z,1566.72
2022-12-11T09:19:13.474Z,1566.72
2022-12-11T09:20:13.717Z,1566.72
2022-12-11T09:21:13.579Z,1566.72
2022-12-11T09:22:13.706Z,1566.72
2022-12-11T09:23:14.822Z,1566.72
2022-12-11T09:24:13.752Z,1566.72
2022-12-11T09:25:13.915Z,1566.72
2022-12-11T09:26:12.987Z,1566.72
2022-12-11T09:27:12.912Z,1566.72
2022-12-11T09:28:12.771Z,1566.72
2022-12-11T09:29:13.778Z,1566.72
2022-12-11T09:30:13.817Z,1566.72
2022-12-11T09:31:13.855Z,1566.72
2022-12-11T09:32:13.696Z,1566.72
2022-12-11T09:33:13.589Z,1566.72
2022-12-11T09:34:13.539Z,1566.72
2022-12-11T09:35:13.697Z,1566.72
2022-12-11T09:36:15.755Z,1468.80
2022-12-11T09:37:13.893Z,1468.80
2022-12-11T09:38:12.821Z,1468.80
2022-12-11T09:39:13.731Z,1566.72
2022-12-11T09:40:14.027Z,1566.72
2022-12-11T09:41:13.086Z,1566.72
2022-12-11T09:42:13.036Z,1762.56
2022-12-11T09:43:13.243Z,1762.56
2022-12-11T09:44:13.251Z,1762.56
2022-12-11T09:45:14.239Z,1762.56
2022-12-11T09:46:13.201Z,1958.40
2022-12-11T09:47:13.653Z,1762.56
2022-12-11T09:48:13.913Z,1762.56
2022-12-11T09:49:13.353Z,1762.56
2022-12-11T09:50:13.270Z,1762.56
2022-12-11T09:51:13.173Z,1762.56
2022-12-11T09:52:13.115Z,1566.72
2022-12-11T09:53:13.307Z,1566.72
2022-12-11T09:54:13.345Z,1566.72
2022-12-11T09:55:13.948Z,1566.72
2022-12-11T09:56:13.334Z,1566.72
2022-12-11T09:57:13.287Z,1566.72
2022-12-11T09:58:13.384Z,1468.80
2022-12-11T09:59:13.339Z,1566.72
2022-12-11T10:00:13.264Z,1566.72
2022-12-11T10:01:13.494Z,1762.56
2022-12-11T10:02:13.912Z,1762.56
2022-12-11T10:03:12.998Z,1762.56
2022-12-11T10:04:12.829Z,1762.56
2022-12-11T10:05:13.968Z,1958.40
2022-12-11T10:06:12.939Z,1958.40
2022-12-11T10:07:13.136Z,1958.40
2022-12-11T10:08:13.374Z,1958.40
2022-12-11T10:09:13.480Z,1958.40
2022-12-11T10:10:13.406Z,2154.24
2022-12-11T10:11:13.439Z,2154.24
2022-12-11T10:12:13.636Z,2154.24
2022-12-11T10:13:13.732Z,2154.24
2022-12-11T10:14:13.747Z,2350.08
2022-12-11T10:15:14.353Z,2350.08
2022-12-11T10:16:13.959Z,2545.92
2022-12-11T10:17:13.226Z,2741.76
2022-12-11T10:18:13.276Z,2741.76
2022-12-11T10:19:13.140Z,2545.92
2022-12-11T10:20:13.241Z,2545.92
2022-12-11T10:21:13.354Z,2350.08
2022-12-11T10:22:13.606Z,2154.24
2022-12-11T10:23:13.919Z,1958.40
2022-12-11T10:24:24.255Z,1958.40
2022-12-11T10:25:14.022Z,1958.40
2022-12-11T10:26:13.189Z,1958.40
2022-12-11T10:27:13.251Z,1958.40
2022-12-11T10:28:13.363Z,1958.40
2022-12-11T10:29:13.341Z,1958.40
2022-12-11T10:30:14.521Z,1958.40
2022-12-11T10:31:13.599Z,2154.24
2022-12-11T10:32:13.905Z,2154.24
2022-12-11T10:33:12.825Z,2350.08
2022-12-11T10:34:14.323Z,2350.08
2022-12-11T10:35:13.476Z,2350.08
2022-12-11T10:36:13.828Z,2545.92
2022-12-11T10:37:13.788Z,2350.08
2022-12-11T10:38:13.967Z,2350.08
2022-12-11T10:39:12.936Z,2350.08
2022-12-11T10:40:12.823Z,2350.08
2022-12-11T10:41:13.930Z,2350.08
2022-12-11T10:42:13.091Z,2154.24
2022-12-11T10:43:13.027Z,2154.24
2022-12-11T10:44:12.945Z,2154.24
2022-12-11T10:45:13.414Z,2154.24
2022-12-11T10:46:18.990Z,1958.40
2022-12-11T10:47:13.309Z,1958.40
2022-12-11T10:48:13.579Z,2154.24
2022-12-11T10:49:13.447Z,1958.40
2022-12-11T10:50:13.456Z,1958.40
2022-12-11T10:51:13.356Z,1958.40
2022-12-11T10:52:13.476Z,1762.56
2022-12-11T10:53:13.550Z,1762.56
2022-12-11T10:54:13.569Z,1762.56
2022-12-11T10:55:13.783Z,1762.56
2022-12-11T10:56:14.987Z,1958.40
2022-12-11T10:57:13.104Z,1958.40
2022-12-11T10:58:13.031Z,1958.40
2022-12-11T10:59:12.923Z,1958.40
2022-12-11T11:00:12.769Z,2154.24
2022-12-11T11:01:13.675Z,2154.24
2022-12-11T11:02:13.920Z,2154.24
2022-12-11T11:03:12.904Z,1958.40
2022-12-11T11:04:12.998Z,1762.56
2022-12-11T11:05:13.456Z,1958.40
2022-12-11T11:06:13.624Z,1958.40
2022-12-11T11:07:14.047Z,2154.24
2022-12-11T11:08:13.335Z,2154.24
2022-12-11T11:09:13.751Z,2154.24
2022-12-11T11:10:13.907Z,2154.24
2022-12-11T11:11:12.813Z,2350.08
2022-12-11T11:12:13.842Z,2350.08
2022-12-11T11:13:13.881Z,2350.08
2022-12-11T11:14:13.776Z,2350.08
2022-12-11T11:15:14.382Z,2154.24
2022-12-11T11:16:13.718Z,1958.40
2022-12-11T11:17:13.687Z,1566.72
2022-12-11T11:18:13.593Z,1566.72
2022-12-11T11:19:13.507Z,1566.72
2022-12-11T11:20:13.436Z,1566.72
2022-12-11T11:21:13.423Z,1566.72
2022-12-11T11:22:13.312Z,1468.80
2022-12-11T11:23:14.546Z,1468.80
2022-12-11T11:24:13.521Z,1468.80
2022-12-11T11:25:13.620Z,1468.80
2022-12-11T11:26:13.631Z,1370.88
2022-12-11T11:27:14.162Z,1272.96
2022-12-11T11:28:13.284Z,1272.96
2022-12-11T11:29:13.249Z,1272.96
2022-12-11T11:30:13.155Z,1370.88
2022-12-11T11:31:13.071Z,1468.80
2022-12-11T11:32:12.947Z,1468.80
2022-12-11T11:33:12.964Z,1468.80
2022-12-11T11:34:12.916Z,1468.80
2022-12-11T11:35:13.339Z,1566.72
2022-12-11T11:36:13.572Z,1566.72
2022-12-11T11:37:13.929Z,1762.56
2022-12-11T11:38:12.767Z,1958.40
2022-12-11T11:39:13.754Z,2154.24
2022-12-11T11:40:14.973Z,2154.24
2022-12-11T11:41:15.109Z,2350.08
2022-12-11T11:42:13.589Z,2545.92
2022-12-11T11:43:13.560Z,2545.92
2022-12-11T11:44:13.572Z,2545.92
2022-12-11T11:45:13.769Z,2545.92
2022-12-11T11:46:12.967Z,2545.92
2022-12-11T11:47:13.201Z,2741.76
2022-12-11T11:48:13.149Z,2937.60
2022-12-11T11:49:13.453Z,2937.60
2022-12-11T11:50:13.773Z,2937.60
2022-12-11T11:51:14.069Z,2545.92
2022-12-11T11:52:13.068Z,2545.92
2022-12-11T11:53:13.360Z,2154.24
2022-12-11T11:54:13.511Z,1958.40
2022-12-11T11:55:18.458Z,1762.56
2022-12-11T11:56:13.515Z,1762.56
2022-12-11T11:57:13.570Z,1762.56
2022-12-11T11:58:13.499Z,1958.40
2022-12-11T11:59:13.380Z,2154.24
2022-12-11T12:00:13.587Z,2350.08
2022-12-11T12:01:13.664Z,2350.08
2022-12-11T12:02:13.925Z,2741.76
2022-12-11T12:03:12.993Z,2741.76
2022-12-11T12:04:12.979Z,2350.08
2022-12-11T12:05:13.443Z,2154.24
2022-12-11T12:06:15.414Z,1958.40
2022-12-11T12:07:13.521Z,1958.40
2022-12-11T12:08:14.313Z,1762.56
2022-12-11T12:09:13.534Z,1762.56
2022-12-11T12:10:13.835Z,1468.80
2022-12-11T12:11:12.955Z,1272.96
2022-12-11T12:12:12.889Z,1175.04
2022-12-11T12:13:44.326Z,1175.04
2022-12-11T12:14:35.895Z,1370.88
2022-12-11T12:15:13.550Z,1566.72
2022-12-11T12:16:44.138Z,1566.72
2022-12-11T12:17:13.114Z,1566.72
2022-12-11T12:18:12.981Z,1566.72
2022-12-11T12:19:12.801Z,1762.56
2022-12-11T12:20:13.839Z,1762.56
2022-12-11T12:21:13.712Z,1762.56
2022-12-11T12:22:13.820Z,1762.56
2022-12-11T12:23:13.880Z,1762.56
2022-12-11T12:24:14.305Z,1762.56
2022-12-11T12:25:13.565Z,1958.40
2022-12-11T12:26:13.651Z,1958.40
2022-12-11T12:27:43.307Z,1958.40
2022-12-11T12:28:13.504Z,1958.40
2022-12-11T12:29:13.396Z,1958.40
2022-12-11T12:30:18.819Z,1958.40
2022-12-11T12:31:13.549Z,1958.40
2022-12-11T12:32:13.422Z,1958.40
2022-12-11T12:33:13.234Z,1958.40
2022-12-11T12:34:13.111Z,1958.40
2022-12-11T12:35:13.681Z,1958.40
2022-12-11T12:36:13.057Z,1762.56
2022-12-11T12:37:13.010Z,1958.40
2022-12-11T12:38:12.821Z,1958.40
2022-12-11T12:39:13.690Z,1762.56
2022-12-11T12:40:13.543Z,1762.56
2022-12-11T12:41:13.602Z,1762.56
2022-12-11T12:42:13.762Z,1762.56
2022-12-11T12:43:13.934Z,1762.56
2022-12-11T12:44:13.146Z,1762.56
2022-12-11T12:45:13.858Z,1762.56
2022-12-11T12:46:13.161Z,1762.56
2022-12-11T12:47:13.533Z,1762.56
2022-12-11T12:48:13.385Z,1762.56
2022-12-11T12:49:13.497Z,1762.56